createdAt,value
2016-11-23T00:00:38.961Z,1006.99
2016-11-23T00:01:38.947Z,1006.97
2016-11-23T00:02:38.933Z,1007
2016-11-23T00:03:38.918Z,1007.01
2016-11-23T00:04:38.913Z,1007.01
2016-11-23T00:05:38.890Z,1006.99
2016-11-23T00:06:38.876Z,1006.97
2016-11-23T00:07:38.861Z,1006.95
2016-11-23T00:08:38.847Z,1006.93
2016-11-23T00:09:38.836Z,1006.91
2016-11-23T00:10:38.828Z,1006.88
2016-11-23T00:11:38.809Z,1006.83
2016-11-23T00:12:38.796Z,1006.85
2016-11-23T00:13:38.778Z,1006.82
2016-11-23T00:14:38.763Z,1006.84
2016-11-23T00:15:38.750Z,1006.8
2016-11-23T00:16:38.734Z,1006.83
2016-11-23T00:17:38.720Z,1006.84
2016-11-23T00:18:38.705Z,1006.87
2016-11-23T00:19:38.690Z,1006.87
2016-11-23T00:20:38.675Z,1006.94
2016-11-23T00:21:38.661Z,1006.84
2016-11-23T00:22:38.648Z,1006.8
2016-11-23T00:23:38.633Z,1006.8
2016-11-23T00:24:38.621Z,1006.74
2016-11-23T00:25:38.606Z,1006.79
2016-11-23T00:26:38.593Z,1006.8
2016-11-23T00:27:38.577Z,1006.83
2016-11-23T00:28:38.561Z,1006.85
2016-11-23T00:29:38.547Z,1006.85
2016-11-23T00:30:38.533Z,1006.87
2016-11-23T00:31:38.519Z,1006.87
2016-11-23T00:32:38.506Z,1006.93
2016-11-23T00:33:38.490Z,1006.9
2016-11-23T00:34:38.476Z,1006.91
2016-11-23T00:35:38.461Z,1006.94
2016-11-23T00:36:38.446Z,1006.96
2016-11-23T00:37:38.432Z,1007
2016-11-23T00:38:38.419Z,1007.04
2016-11-23T00:39:38.404Z,1007.05
2016-11-23T00:40:38.391Z,1007.04
2016-11-23T00:41:38.375Z,1007.06
2016-11-23T00:42:38.362Z,1007.09
2016-11-23T00:43:38.346Z,1007.08
2016-11-23T00:44:38.331Z,1007.11
2016-11-23T00:45:38.318Z,1007.12
2016-11-23T00:46:38.305Z,1007.1
2016-11-23T00:47:38.290Z,1007.14
2016-11-23T00:48:38.275Z,1007.16
2016-11-23T00:49:38.260Z,1007.21
2016-11-23T00:50:38.248Z,1007.18
2016-11-23T00:51:38.231Z,1007.22
2016-11-23T00:52:38.217Z,1007.2
2016-11-23T00:53:38.204Z,1007.26
2016-11-23T00:54:38.190Z,1007.27
2016-11-23T00:55:38.174Z,1007.24
2016-11-23T00:56:38.161Z,1007.23
2016-11-23T00:57:38.147Z,1007.23
2016-11-23T00:58:38.133Z,1007.26
2016-11-23T00:59:38.119Z,1007.27
2016-11-23T01:00:38.104Z,1007.32
2016-11-23T01:01:38.090Z,1007.3
2016-11-23T01:02:38.075Z,1007.34
2016-11-23T01:03:38.062Z,1007.38
2016-11-23T01:04:38.047Z,1007.43
2016-11-23T01:05:38.032Z,1007.45
2016-11-23T01:06:38.019Z,1007.45
2016-11-23T01:07:38.009Z,1007.43
2016-11-23T01:08:37.989Z,1007.48
2016-11-23T01:09:37.974Z,1007.46
2016-11-23T01:10:37.961Z,1007.47
2016-11-23T01:11:37.947Z,1007.45
2016-11-23T01:12:37.934Z,1007.5
2016-11-23T01:13:37.917Z,1007.5
2016-11-23T01:14:37.904Z,1007.52
2016-11-23T01:15:37.889Z,1007.51
2016-11-23T01:16:37.876Z,1007.54
2016-11-23T01:17:37.860Z,1007.51
2016-11-23T01:18:37.850Z,1007.52
2016-11-23T01:19:37.836Z,1007.55
2016-11-23T01:20:37.819Z,1007.52
2016-11-23T01:21:37.804Z,1007.51
2016-11-23T01:22:37.840Z,1007.47
2016-11-23T01:23:37.776Z,1007.45
2016-11-23T01:24:37.760Z,1007.47
2016-11-23T01:25:37.746Z,1007.46
2016-11-23T01:26:37.734Z,1007.46
2016-11-23T01:27:37.718Z,1007.47
2016-11-23T01:28:37.705Z,1007.47
2016-11-23T01:29:37.690Z,1007.46
2016-11-23T01:30:37.676Z,1007.46
2016-11-23T01:31:37.662Z,1007.5
2016-11-23T01:32:37.647Z,1007.51
2016-11-23T01:33:37.634Z,1007.5
2016-11-23T01:34:37.620Z,1007.56
2016-11-23T01:35:37.604Z,1007.59
2016-11-23T01:36:37.591Z,1007.58
2016-11-23T01:37:37.576Z,1007.58
2016-11-23T01:38:37.560Z,1007.63
2016-11-23T01:39:37.547Z,1007.66
2016-11-23T01:40:37.532Z,1007.63
2016-11-23T01:41:37.519Z,1007.64
2016-11-23T01:42:37.503Z,1007.64
2016-11-23T01:43:37.489Z,1007.63
2016-11-23T01:44:37.679Z,1007.59
2016-11-23T01:45:37.461Z,1007.61
2016-11-23T01:46:37.447Z,1007.56
2016-11-23T01:47:37.432Z,1007.55
2016-11-23T01:48:37.417Z,1007.59
2016-11-23T01:49:37.403Z,1007.59
2016-11-23T01:50:37.388Z,1007.65
2016-11-23T01:51:37.374Z,1007.69
2016-11-23T01:52:37.362Z,1007.66
2016-11-23T01:53:37.345Z,1007.66
2016-11-23T01:54:37.335Z,1007.66
2016-11-23T01:55:37.320Z,1007.73
2016-11-23T01:56:37.303Z,1007.78
2016-11-23T01:57:37.287Z,1007.84
2016-11-23T01:58:37.274Z,1007.86
2016-11-23T01:59:37.260Z,1007.87
2016-11-23T02:00:37.245Z,1007.9
2016-11-23T02:01:37.231Z,1007.98
2016-11-23T02:02:37.216Z,1007.97
2016-11-23T02:03:37.204Z,1008.02
2016-11-23T02:04:37.188Z,1008.06
2016-11-23T02:05:37.174Z,1008.09
2016-11-23T02:06:37.161Z,1008.12
2016-11-23T02:07:37.145Z,1008.13
2016-11-23T02:08:37.131Z,1008.17
2016-11-23T02:09:37.116Z,1008.16
2016-11-23T02:10:37.102Z,1008.18
2016-11-23T02:11:37.087Z,1008.2
2016-11-23T02:12:37.075Z,1008.22
2016-11-23T02:13:37.059Z,1008.24
2016-11-23T02:14:37.045Z,1008.23
2016-11-23T02:15:37.030Z,1008.23
2016-11-23T02:16:37.017Z,1008.22
2016-11-23T02:17:37.002Z,1008.31
2016-11-23T02:18:36.986Z,1008.25
2016-11-23T02:19:36.973Z,1008.27
2016-11-23T02:20:36.958Z,1008.24
2016-11-23T02:21:36.945Z,1008.24
2016-11-23T02:22:36.928Z,1008.29
2016-11-23T02:23:36.917Z,1008.27
2016-11-23T02:24:36.901Z,1008.26
2016-11-23T02:25:36.891Z,1008.29
2016-11-23T02:26:36.880Z,1008.25
2016-11-23T02:27:36.858Z,1008.22
2016-11-23T02:28:36.849Z,1008.26
2016-11-23T02:29:36.830Z,1008.29
2016-11-23T02:30:36.817Z,1008.31
2016-11-23T02:31:36.804Z,1008.3
2016-11-23T02:32:36.788Z,1008.3
2016-11-23T02:33:36.791Z,1008.28
2016-11-23T02:34:36.758Z,1008.23
2016-11-23T02:35:36.747Z,1008.19
2016-11-23T02:36:36.731Z,1008.18
2016-11-23T02:37:36.715Z,1008.23
2016-11-23T02:38:36.703Z,1008.2
2016-11-23T02:39:36.697Z,1008.16
2016-11-23T02:40:36.675Z,1008.09
2016-11-23T02:41:36.659Z,1008
2016-11-23T02:42:36.647Z,1008.01
2016-11-23T02:43:36.633Z,1008.02
2016-11-23T02:44:36.618Z,1007.99
2016-11-23T02:45:36.604Z,1007.91
2016-11-23T02:46:36.588Z,1007.86
2016-11-23T02:47:36.575Z,1007.8
2016-11-23T02:48:36.562Z,1007.72
2016-11-23T02:49:36.546Z,1007.68
2016-11-23T02:50:36.532Z,1007.63
2016-11-23T02:51:36.518Z,1007.62
2016-11-23T02:52:36.506Z,1007.56
2016-11-23T02:53:36.488Z,1007.59
2016-11-23T02:54:36.475Z,1007.56
2016-11-23T02:55:36.460Z,1007.51
2016-11-23T02:56:36.445Z,1007.5
2016-11-23T02:57:36.432Z,1007.47
2016-11-23T02:58:36.418Z,1007.4
2016-11-23T02:59:36.404Z,1007.37
2016-11-23T03:00:36.389Z,1007.32
2016-11-23T03:01:36.375Z,1007.24
2016-11-23T03:02:36.361Z,1007.26
2016-11-23T03:03:36.347Z,1007.24
2016-11-23T03:04:36.332Z,1007.21
2016-11-23T03:05:36.319Z,1007.32
2016-11-23T03:06:36.303Z,1007.38
2016-11-23T03:07:36.289Z,1007.42
2016-11-23T03:08:36.275Z,1007.43
2016-11-23T03:09:36.262Z,1007.47
2016-11-23T03:10:36.246Z,1007.48
2016-11-23T03:11:36.233Z,1007.51
2016-11-23T03:12:36.218Z,1007.53
2016-11-23T03:13:36.256Z,1007.57
2016-11-23T03:14:36.189Z,1007.56
2016-11-23T03:15:36.175Z,1007.59
2016-11-23T03:16:36.160Z,1007.58
2016-11-23T03:17:36.145Z,1007.57
2016-11-23T03:18:36.132Z,1007.56
2016-11-23T03:19:36.117Z,1007.56
2016-11-23T03:20:36.102Z,1007.58
2016-11-23T03:21:36.087Z,1007.62
2016-11-23T03:22:36.076Z,1007.65
2016-11-23T03:23:36.057Z,1007.71
2016-11-23T03:24:36.043Z,1007.77
2016-11-23T03:25:36.027Z,1007.76
2016-11-23T03:26:36.017Z,1007.82
2016-11-23T03:27:36.002Z,1007.87
2016-11-23T03:28:35.986Z,1007.84
2016-11-23T03:29:35.971Z,1007.88
2016-11-23T03:30:35.956Z,1007.91
2016-11-23T03:31:35.943Z,1007.9
2016-11-23T03:32:35.927Z,1007.89
2016-11-23T03:33:35.915Z,1007.89
2016-11-23T03:34:35.900Z,1007.9
2016-11-23T03:35:35.888Z,1007.92
2016-11-23T03:36:35.871Z,1007.88
2016-11-23T03:37:35.855Z,1007.89
2016-11-23T03:38:35.843Z,1007.91
2016-11-23T03:39:35.827Z,1007.95
2016-11-23T03:40:35.811Z,1007.93
2016-11-23T03:41:35.806Z,1007.94
2016-11-23T03:42:35.785Z,1007.9
2016-11-23T03:43:35.768Z,1007.9
2016-11-23T03:44:35.956Z,1007.9
2016-11-23T03:45:35.740Z,1007.86
2016-11-23T03:46:35.725Z,1007.87
2016-11-23T03:47:35.711Z,1007.87
2016-11-23T03:48:35.697Z,1007.84
2016-11-23T03:49:35.683Z,1007.79
2016-11-23T03:50:35.717Z,1007.8
2016-11-23T03:51:35.652Z,1007.81
2016-11-23T03:52:35.640Z,1007.85
2016-11-23T03:53:35.625Z,1007.82
2016-11-23T03:54:35.612Z,1007.85
2016-11-23T03:55:35.595Z,1007.87
2016-11-23T03:56:35.580Z,1007.87
2016-11-23T03:57:35.565Z,1007.87
2016-11-23T03:58:35.574Z,1007.89
2016-11-23T03:59:35.541Z,1007.87
2016-11-23T04:00:35.527Z,1007.9
2016-11-23T04:01:35.508Z,1007.89
2016-11-23T04:02:35.493Z,1007.95
2016-11-23T04:03:35.482Z,1007.97
2016-11-23T04:04:35.471Z,1007.97
2016-11-23T04:05:35.457Z,1007.99
2016-11-23T04:06:35.438Z,1007.97
2016-11-23T04:07:35.421Z,1007.99
2016-11-23T04:08:35.406Z,1007.93
2016-11-23T04:09:35.392Z,1007.95
2016-11-23T04:10:35.377Z,1007.94
2016-11-23T04:11:35.364Z,1007.97
2016-11-23T04:12:35.349Z,1007.98
2016-11-23T04:13:35.333Z,1007.99
2016-11-23T04:14:35.319Z,1007.99
2016-11-23T04:15:35.305Z,1007.99
2016-11-23T04:16:35.289Z,1007.96
2016-11-23T04:17:35.275Z,1007.94
2016-11-23T04:18:35.260Z,1007.92
2016-11-23T04:19:35.245Z,1007.89
2016-11-23T04:20:35.232Z,1007.92
2016-11-23T04:21:35.216Z,1007.93
2016-11-23T04:22:35.201Z,1007.92
2016-11-23T04:23:35.186Z,1007.91
2016-11-23T04:24:35.171Z,1007.84
2016-11-23T04:25:35.165Z,1007.86
2016-11-23T04:26:35.142Z,1007.92
2016-11-23T04:27:35.126Z,1007.9
2016-11-23T04:28:35.113Z,1007.91
2016-11-23T04:29:35.098Z,1007.91
2016-11-23T04:30:35.083Z,1007.91
2016-11-23T04:31:35.074Z,1007.92
2016-11-23T04:32:35.053Z,1007.95
2016-11-23T04:33:35.043Z,1007.93
2016-11-23T04:34:35.023Z,1007.92
2016-11-23T04:35:35.010Z,1008
2016-11-23T04:36:34.995Z,1008.03
2016-11-23T04:37:34.980Z,1008.01
2016-11-23T04:38:34.964Z,1008.01
2016-11-23T04:39:34.952Z,1008.08
2016-11-23T04:40:34.934Z,1008.09
2016-11-23T04:41:34.919Z,1008.06
2016-11-23T04:42:34.910Z,1008.07
2016-11-23T04:43:34.897Z,1008.09
2016-11-23T04:44:34.878Z,1008.12
2016-11-23T04:45:34.861Z,1008.17
2016-11-23T04:46:34.847Z,1008.17
2016-11-23T04:47:34.829Z,1008.17
2016-11-23T04:48:34.813Z,1008.16
2016-11-23T04:49:34.800Z,1008.15
2016-11-23T04:50:34.813Z,1008.15
2016-11-23T04:51:34.772Z,1008.14
2016-11-23T04:52:34.754Z,1008.12
2016-11-23T04:53:34.741Z,1008.14
2016-11-23T04:54:34.725Z,1008.12
2016-11-23T04:55:34.709Z,1008.09
2016-11-23T04:56:34.693Z,1008.05
2016-11-23T04:57:34.677Z,1008.03
2016-11-23T04:58:34.663Z,1007.98
2016-11-23T04:59:34.647Z,1007.98
2016-11-23T05:00:34.632Z,1007.99
2016-11-23T05:01:34.618Z,1008
2016-11-23T05:02:34.602Z,1007.99
2016-11-23T05:03:34.587Z,1007.97
2016-11-23T05:04:34.571Z,1008
2016-11-23T05:05:34.606Z,1007.97
2016-11-23T05:06:34.541Z,1007.98
2016-11-23T05:07:34.526Z,1007.99
2016-11-23T05:08:34.510Z,1007.97
2016-11-23T05:09:34.495Z,1007.97
2016-11-23T05:10:34.479Z,1008.01
2016-11-23T05:11:34.465Z,1008.02
2016-11-23T05:12:34.449Z,1008.05
2016-11-23T05:13:34.434Z,1008.07
2016-11-23T05:14:34.416Z,1008.1
2016-11-23T05:15:34.401Z,1008.12
2016-11-23T05:16:34.387Z,1008.1
2016-11-23T05:17:34.372Z,1008.17
2016-11-23T05:18:34.354Z,1008.14
2016-11-23T05:19:34.338Z,1008.11
2016-11-23T05:20:34.325Z,1008.07
2016-11-23T05:21:34.308Z,1008.18
2016-11-23T05:22:34.292Z,1008.14
2016-11-23T05:23:34.277Z,1008.16
2016-11-23T05:24:34.261Z,1008.19
2016-11-23T05:25:34.246Z,1008.15
2016-11-23T05:26:34.229Z,1008.15
2016-11-23T05:27:34.214Z,1008.08
2016-11-23T05:28:34.198Z,1008.02
2016-11-23T05:29:34.185Z,1007.98
2016-11-23T05:30:34.168Z,1007.95
2016-11-23T05:31:34.153Z,1007.94
2016-11-23T05:32:34.135Z,1007.94
2016-11-23T05:33:34.118Z,1007.87
2016-11-23T05:34:34.104Z,1007.88
2016-11-23T05:35:34.091Z,1007.86
2016-11-23T05:36:34.072Z,1007.81
2016-11-23T05:37:34.057Z,1007.79
2016-11-23T05:38:34.041Z,1007.82
2016-11-23T05:39:34.024Z,1007.76
2016-11-23T05:40:34.008Z,1007.79
2016-11-23T05:41:33.993Z,1007.86
2016-11-23T05:42:33.978Z,1007.87
2016-11-23T05:43:33.961Z,1007.83
2016-11-23T05:44:33.946Z,1007.86
2016-11-23T05:45:33.930Z,1007.85
2016-11-23T05:46:33.914Z,1007.89
2016-11-23T05:47:33.898Z,1007.89
2016-11-23T05:48:33.882Z,1007.91
2016-11-23T05:49:33.865Z,1007.9
2016-11-23T05:50:33.850Z,1007.86
2016-11-23T05:51:33.833Z,1007.84
2016-11-23T05:52:33.819Z,1007.86
2016-11-23T05:53:33.801Z,1007.88
2016-11-23T05:54:33.786Z,1007.84
2016-11-23T05:55:33.771Z,1007.87
2016-11-23T05:56:33.756Z,1007.86
2016-11-23T05:57:33.738Z,1007.87
2016-11-23T05:58:33.720Z,1007.91
2016-11-23T05:59:33.707Z,1007.97
2016-11-23T06:00:33.691Z,1008.03
2016-11-23T06:01:33.677Z,1008
2016-11-23T06:02:33.657Z,1007.96
2016-11-23T06:03:33.641Z,1008.01
2016-11-23T06:04:33.627Z,1007.98
2016-11-23T06:05:33.611Z,1007.99
2016-11-23T06:06:33.594Z,1008.04
2016-11-23T06:07:33.577Z,1008.06
2016-11-23T06:08:33.562Z,1008.03
2016-11-23T06:09:33.545Z,1008.03
2016-11-23T06:10:33.529Z,1008
2016-11-23T06:11:33.515Z,1008.01
2016-11-23T06:12:33.498Z,1008.02
2016-11-23T06:13:33.482Z,1007.98
2016-11-23T06:14:33.467Z,1008.01
2016-11-23T06:15:33.451Z,1007.98
2016-11-23T06:16:33.436Z,1008.03
2016-11-23T06:17:33.419Z,1008
2016-11-23T06:18:33.402Z,1007.99
2016-11-23T06:19:33.387Z,1008.05
2016-11-23T06:20:33.370Z,1008.01
2016-11-23T06:21:33.404Z,1008.06
2016-11-23T06:22:33.338Z,1008.11
2016-11-23T06:23:33.322Z,1008.13
2016-11-23T06:24:33.305Z,1008.17
2016-11-23T06:25:33.289Z,1008.13
2016-11-23T06:26:33.274Z,1008.14
2016-11-23T06:27:33.256Z,1008.15
2016-11-23T06:28:33.241Z,1008.16
2016-11-23T06:29:33.225Z,1008.15
2016-11-23T06:30:33.208Z,1008.16
2016-11-23T06:31:33.191Z,1008.16
2016-11-23T06:32:33.176Z,1008.18
2016-11-23T06:33:33.162Z,1008.19
2016-11-23T06:34:33.144Z,1008.25
2016-11-23T06:35:33.128Z,1008.27
2016-11-23T06:36:33.110Z,1008.28
2016-11-23T06:37:33.096Z,1008.34
2016-11-23T06:38:33.078Z,1008.32
2016-11-23T06:39:33.063Z,1008.32
2016-11-23T06:40:33.048Z,1008.3
2016-11-23T06:41:33.038Z,1008.34
2016-11-23T06:42:33.015Z,1008.36
2016-11-23T06:43:32.998Z,1008.32
2016-11-23T06:44:32.981Z,1008.29
2016-11-23T06:45:32.965Z,1008.3
2016-11-23T06:46:32.949Z,1008.33
2016-11-23T06:47:32.932Z,1008.36
2016-11-23T06:48:32.917Z,1008.39
2016-11-23T06:49:32.901Z,1008.41
2016-11-23T06:50:32.884Z,1008.37
2016-11-23T06:51:32.868Z,1008.39
2016-11-23T06:52:32.852Z,1008.42
2016-11-23T06:53:32.836Z,1008.42
2016-11-23T06:54:32.820Z,1008.43
2016-11-23T06:55:32.805Z,1008.44
2016-11-23T06:56:32.786Z,1008.51
2016-11-23T06:57:32.772Z,1008.5
2016-11-23T06:58:32.759Z,1008.58
2016-11-23T06:59:32.753Z,1008.62
2016-11-23T07:00:32.722Z,1008.61
2016-11-23T07:01:32.706Z,1008.69
2016-11-23T07:02:32.690Z,1008.68
2016-11-23T07:03:32.674Z,1008.73
2016-11-23T07:04:32.656Z,1008.72
2016-11-23T07:05:32.642Z,1008.78
2016-11-23T07:06:32.624Z,1008.74
2016-11-23T07:07:32.609Z,1008.76
2016-11-23T07:08:32.593Z,1008.77
2016-11-23T07:09:32.576Z,1008.77
2016-11-23T07:10:32.561Z,1008.81
2016-11-23T07:11:32.543Z,1008.82
2016-11-23T07:12:32.529Z,1008.83
2016-11-23T07:13:32.511Z,1008.84
2016-11-23T07:14:32.495Z,1008.89
2016-11-23T07:15:32.477Z,1008.83
2016-11-23T07:16:32.463Z,1008.88
2016-11-23T07:17:32.446Z,1008.88
2016-11-23T07:18:32.428Z,1008.95
2016-11-23T07:19:32.413Z,1008.97
2016-11-23T07:20:32.396Z,1008.96
2016-11-23T07:21:32.430Z,1008.99
2016-11-23T07:22:32.363Z,1009.01
2016-11-23T07:23:32.350Z,1009.02
2016-11-23T07:24:32.337Z,1009.02
2016-11-23T07:25:32.316Z,1009.03
2016-11-23T07:26:32.299Z,1009.04
2016-11-23T07:27:32.282Z,1009.03
2016-11-23T07:28:32.266Z,1009.04
2016-11-23T07:29:32.247Z,1009.07
2016-11-23T07:30:32.231Z,1009.03
2016-11-23T07:31:32.266Z,1009.02
2016-11-23T07:32:32.200Z,1009.05
2016-11-23T07:33:32.183Z,1009.04
2016-11-23T07:34:32.168Z,1009.06
2016-11-23T07:35:32.151Z,1009.02
2016-11-23T07:36:32.134Z,1009.02
2016-11-23T07:37:32.116Z,1009.02
2016-11-23T07:38:32.103Z,1009.05
2016-11-23T07:39:32.085Z,1009.02
2016-11-23T07:40:32.071Z,1008.96
2016-11-23T07:41:32.051Z,1008.95
2016-11-23T07:42:32.087Z,1008.94
2016-11-23T07:43:32.022Z,1008.97
2016-11-23T07:44:32.005Z,1008.96
2016-11-23T07:45:32.190Z,1008.98
2016-11-23T07:46:31.971Z,1008.99
2016-11-23T07:47:31.956Z,1008.97
2016-11-23T07:48:31.939Z,1008.95
2016-11-23T07:49:31.927Z,1009.01
2016-11-23T07:50:31.909Z,1009.02
2016-11-23T07:51:31.891Z,1009.02
2016-11-23T07:52:31.876Z,1009.04
2016-11-23T07:53:31.860Z,1009.08
2016-11-23T07:54:31.844Z,1009.08
2016-11-23T07:55:31.827Z,1009.09
2016-11-23T07:56:31.811Z,1009.03
2016-11-23T07:57:31.815Z,1009.05
2016-11-23T07:58:31.778Z,1009.12
2016-11-23T07:59:31.762Z,1009.14
2016-11-23T08:00:31.748Z,1009.1
2016-11-23T08:01:31.732Z,1009.1
2016-11-23T08:02:31.715Z,1009.08
2016-11-23T08:03:31.698Z,1009.13
2016-11-23T08:04:31.681Z,1009.09
2016-11-23T08:05:31.667Z,1009.08
2016-11-23T08:06:31.649Z,1009.08
2016-11-23T08:07:31.637Z,1009.07
2016-11-23T08:08:31.616Z,1009.1
2016-11-23T08:09:31.601Z,1009.09
2016-11-23T08:10:31.584Z,1009.13
2016-11-23T08:11:31.569Z,1009.13
2016-11-23T08:12:31.557Z,1009.13
2016-11-23T08:13:31.539Z,1009.15
2016-11-23T08:14:31.520Z,1009.11
2016-11-23T08:15:31.505Z,1009.12
2016-11-23T08:16:31.489Z,1009.09
2016-11-23T08:17:31.473Z,1009.07
2016-11-23T08:18:31.456Z,1009.08
2016-11-23T08:19:31.441Z,1009.06
2016-11-23T08:20:31.426Z,1009.02
2016-11-23T08:21:31.410Z,1009.01
2016-11-23T08:22:31.394Z,1009.02
2016-11-23T08:23:31.377Z,1009
2016-11-23T08:24:31.361Z,1008.96
2016-11-23T08:25:31.344Z,1008.95
2016-11-23T08:26:31.330Z,1009.03
2016-11-23T08:27:31.315Z,1009.04
2016-11-23T08:28:31.298Z,1009.06
2016-11-23T08:29:31.282Z,1009.02
2016-11-23T08:30:31.266Z,1009.04
2016-11-23T08:31:31.251Z,1009.05
2016-11-23T08:32:31.235Z,1008.99
2016-11-23T08:33:31.218Z,1008.97
2016-11-23T08:34:31.203Z,1008.89
2016-11-23T08:35:31.188Z,1008.91
2016-11-23T08:36:31.174Z,1008.9
2016-11-23T08:37:31.158Z,1008.87
2016-11-23T08:38:31.142Z,1008.93
2016-11-23T08:39:31.129Z,1008.95
2016-11-23T08:40:31.111Z,1008.99
2016-11-23T08:41:31.096Z,1009.02
2016-11-23T08:42:31.082Z,1009.05
2016-11-23T08:43:31.067Z,1009.02
2016-11-23T08:44:31.051Z,1009.12
2016-11-23T08:45:31.034Z,1009.18
2016-11-23T08:46:31.021Z,1009.18
2016-11-23T08:47:31.003Z,1009.15
2016-11-23T08:48:30.990Z,1009.19
2016-11-23T08:49:30.972Z,1009.2
2016-11-23T08:50:30.957Z,1009.19
2016-11-23T08:51:30.941Z,1009.21
2016-11-23T08:52:30.925Z,1009.24
2016-11-23T08:53:30.910Z,1009.18
2016-11-23T08:54:30.895Z,1009.22
2016-11-23T08:55:30.880Z,1009.22
2016-11-23T08:56:30.865Z,1009.23
2016-11-23T08:57:30.849Z,1009.25
2016-11-23T08:58:30.838Z,1009.24
2016-11-23T08:59:30.818Z,1009.21
2016-11-23T09:00:30.806Z,1009.26
2016-11-23T09:01:30.787Z,1009.29
2016-11-23T09:02:30.776Z,1009.32
2016-11-23T09:03:30.760Z,1009.3
2016-11-23T09:04:30.744Z,1009.28
2016-11-23T09:05:30.728Z,1009.28
2016-11-23T09:06:30.714Z,1009.28
2016-11-23T09:07:30.699Z,1009.27
2016-11-23T09:08:30.684Z,1009.28
2016-11-23T09:09:30.671Z,1009.33
2016-11-23T09:10:30.654Z,1009.28
2016-11-23T09:11:30.639Z,1009.29
2016-11-23T09:12:30.624Z,1009.3
2016-11-23T09:13:30.610Z,1009.28
2016-11-23T09:14:30.594Z,1009.29
2016-11-23T09:15:30.579Z,1009.37
2016-11-23T09:16:30.563Z,1009.34
2016-11-23T09:17:30.551Z,1009.36
2016-11-23T09:18:30.533Z,1009.33
2016-11-23T09:19:30.519Z,1009.36
2016-11-23T09:20:30.503Z,1009.37
2016-11-23T09:21:30.498Z,1009.43
2016-11-23T09:22:30.476Z,1009.42
2016-11-23T09:23:30.462Z,1009.41
2016-11-23T09:24:30.445Z,1009.43
2016-11-23T09:25:30.431Z,1009.4
2016-11-23T09:26:30.415Z,1009.44
2016-11-23T09:27:30.401Z,1009.39
2016-11-23T09:28:30.388Z,1009.38
2016-11-23T09:29:30.372Z,1009.36
2016-11-23T09:30:30.358Z,1009.34
2016-11-23T09:31:30.343Z,1009.34
2016-11-23T09:32:30.327Z,1009.29
2016-11-23T09:33:30.313Z,1009.33
2016-11-23T09:34:30.299Z,1009.31
2016-11-23T09:35:30.287Z,1009.29
2016-11-23T09:36:30.272Z,1009.33
2016-11-23T09:37:30.255Z,1009.36
2016-11-23T09:38:30.242Z,1009.38
2016-11-23T09:39:30.229Z,1009.47
2016-11-23T09:40:30.211Z,1009.46
2016-11-23T09:41:30.197Z,1009.45
2016-11-23T09:42:30.187Z,1009.41
2016-11-23T09:43:30.170Z,1009.4
2016-11-23T09:44:30.155Z,1009.4
2016-11-23T09:45:30.343Z,1009.39
2016-11-23T09:46:30.128Z,1009.38
2016-11-23T09:47:30.114Z,1009.36
2016-11-23T09:48:30.103Z,1009.36
2016-11-23T09:49:30.083Z,1009.36
2016-11-23T09:50:30.073Z,1009.34
2016-11-23T09:51:30.058Z,1009.39
2016-11-23T09:52:30.043Z,1009.43
2016-11-23T09:53:30.029Z,1009.42
2016-11-23T09:54:30.015Z,1009.43
2016-11-23T09:55:30.001Z,1009.46
2016-11-23T09:56:29.987Z,1009.44
2016-11-23T09:57:29.975Z,1009.45
2016-11-23T09:58:29.960Z,1009.43
2016-11-23T09:59:29.946Z,1009.43
2016-11-23T10:00:29.931Z,1009.4
2016-11-23T10:01:29.918Z,1009.38
2016-11-23T10:02:29.905Z,1009.41
2016-11-23T10:03:29.891Z,1009.38
2016-11-23T10:04:29.881Z,1009.38
2016-11-23T10:05:29.865Z,1009.4
2016-11-23T10:06:29.849Z,1009.38
2016-11-23T10:07:29.837Z,1009.37
2016-11-23T10:08:29.824Z,1009.39
2016-11-23T10:09:29.812Z,1009.42
2016-11-23T10:10:29.799Z,1009.39
2016-11-23T10:11:29.784Z,1009.38
2016-11-23T10:12:29.770Z,1009.38
2016-11-23T10:13:29.756Z,1009.37
2016-11-23T10:14:29.744Z,1009.35
2016-11-23T10:15:29.731Z,1009.36
2016-11-23T10:16:29.720Z,1009.4
2016-11-23T10:17:29.706Z,1009.42
2016-11-23T10:18:29.692Z,1009.4
2016-11-23T10:19:29.682Z,1009.42
2016-11-23T10:20:29.671Z,1009.4
2016-11-23T10:21:29.655Z,1009.38
2016-11-23T10:22:29.644Z,1009.4
2016-11-23T10:23:29.627Z,1009.38
2016-11-23T10:24:29.613Z,1009.35
2016-11-23T10:25:29.600Z,1009.36
2016-11-23T10:26:29.588Z,1009.37
2016-11-23T10:27:29.579Z,1009.37
2016-11-23T10:28:29.564Z,1009.39
2016-11-23T10:29:29.552Z,1009.35
2016-11-23T10:30:29.539Z,1009.37
2016-11-23T10:31:29.526Z,1009.33
2016-11-23T10:32:29.512Z,1009.31
2016-11-23T10:33:29.501Z,1009.21
2016-11-23T10:34:29.489Z,1009.27
2016-11-23T10:35:29.478Z,1009.34
2016-11-23T10:36:29.466Z,1009.34
2016-11-23T10:37:29.452Z,1009.3
2016-11-23T10:38:29.444Z,1009.31
2016-11-23T10:39:29.432Z,1009.34
2016-11-23T10:40:29.419Z,1009.32
2016-11-23T10:41:29.403Z,1009.29
2016-11-23T10:42:29.397Z,1009.38
2016-11-23T10:43:29.379Z,1009.41
2016-11-23T10:44:29.368Z,1009.41
2016-11-23T10:45:29.357Z,1009.41
2016-11-23T10:46:29.345Z,1009.45
2016-11-23T10:47:29.334Z,1009.44
2016-11-23T10:48:29.322Z,1009.43
2016-11-23T10:49:29.307Z,1009.44
2016-11-23T10:50:29.301Z,1009.44
2016-11-23T10:51:29.284Z,1009.5
2016-11-23T10:52:29.275Z,1009.51
2016-11-23T10:53:29.261Z,1009.47
2016-11-23T10:54:29.250Z,1009.48
2016-11-23T10:55:29.239Z,1009.52
2016-11-23T10:56:29.226Z,1009.52
2016-11-23T10:57:29.218Z,1009.53
2016-11-23T10:58:29.206Z,1009.49
2016-11-23T10:59:29.195Z,1009.53
2016-11-23T11:00:29.182Z,1009.57
2016-11-23T11:01:29.170Z,1009.56
2016-11-23T11:02:29.157Z,1009.55
2016-11-23T11:03:29.146Z,1009.5
2016-11-23T11:04:29.136Z,1009.49
2016-11-23T11:05:29.125Z,1009.47
2016-11-23T11:06:29.113Z,1009.5
2016-11-23T11:07:29.102Z,1009.53
2016-11-23T11:08:29.091Z,1009.52
2016-11-23T11:09:29.079Z,1009.53
2016-11-23T11:10:29.067Z,1009.5
2016-11-23T11:11:29.058Z,1009.51
2016-11-23T11:12:29.044Z,1009.52
2016-11-23T11:13:29.033Z,1009.53
2016-11-23T11:14:29.020Z,1009.49
2016-11-23T11:15:29.011Z,1009.43
2016-11-23T11:16:28.997Z,1009.41
2016-11-23T11:17:28.986Z,1009.41
2016-11-23T11:18:28.977Z,1009.39
2016-11-23T11:19:28.964Z,1009.39
2016-11-23T11:20:28.953Z,1009.39
2016-11-23T11:21:28.941Z,1009.39
2016-11-23T11:22:28.931Z,1009.41
2016-11-23T11:23:28.918Z,1009.43
2016-11-23T11:24:28.907Z,1009.47
2016-11-23T11:25:28.898Z,1009.45
2016-11-23T11:26:28.884Z,1009.47
2016-11-23T11:27:28.872Z,1009.47
2016-11-23T11:28:28.860Z,1009.44
2016-11-23T11:29:28.848Z,1009.42
2016-11-23T11:30:28.838Z,1009.41
2016-11-23T11:31:28.826Z,1009.37
2016-11-23T11:32:28.819Z,1009.44
2016-11-23T11:33:28.802Z,1009.47
2016-11-23T11:34:28.790Z,1009.51
2016-11-23T11:35:28.777Z,1009.53
2016-11-23T11:36:28.766Z,1009.57
2016-11-23T11:37:28.755Z,1009.55
2016-11-23T11:38:28.742Z,1009.57
2016-11-23T11:39:28.732Z,1009.61
2016-11-23T11:40:28.719Z,1009.62
2016-11-23T11:41:28.707Z,1009.6
2016-11-23T11:42:28.696Z,1009.58
2016-11-23T11:43:28.688Z,1009.57
2016-11-23T11:44:28.673Z,1009.54
2016-11-23T11:45:28.864Z,1009.53
2016-11-23T11:46:28.648Z,1009.55
2016-11-23T11:47:28.637Z,1009.55
2016-11-23T11:48:28.629Z,1009.5
2016-11-23T11:49:28.614Z,1009.5
2016-11-23T11:50:28.605Z,1009.52
2016-11-23T11:51:28.592Z,1009.49
2016-11-23T11:52:28.579Z,1009.57
2016-11-23T11:53:28.568Z,1009.53
2016-11-23T11:54:28.556Z,1009.48
2016-11-23T11:55:28.545Z,1009.5
2016-11-23T11:56:28.531Z,1009.49
2016-11-23T11:57:28.522Z,1009.49
2016-11-23T11:58:28.512Z,1009.5
2016-11-23T11:59:28.499Z,1009.49
2016-11-23T12:00:28.487Z,1009.54
2016-11-23T12:01:28.475Z,1009.57
2016-11-23T12:02:28.464Z,1009.54
2016-11-23T12:03:28.452Z,1009.53
2016-11-23T12:04:28.441Z,1009.52
2016-11-23T12:05:28.431Z,1009.51
2016-11-23T12:06:28.419Z,1009.5
2016-11-23T12:07:28.405Z,1009.5
2016-11-23T12:08:28.394Z,1009.47